createdAt,value
2022-10-26T00:01:11.809Z,4.13
2022-10-26T00:03:40.673Z,4.43
2022-10-26T00:06:08.852Z,3.65
2022-10-26T00:08:35.880Z,3.40
2022-10-26T00:11:03.659Z,3.40
2022-10-26T00:13:30.689Z,3.20
2022-10-26T00:15:57.731Z,3.08
2022-10-26T00:18:25.094Z,2.65
2022-10-26T00:20:52.103Z,3.28
2022-10-26T00:23:18.947Z,3.50
2022-10-26T00:25:54.354Z,3.58
2022-10-26T00:28:21.272Z,3.28
2022-10-26T00:30:48.138Z,3.28
2022-10-26T00:33:15.249Z,2.50
2022-10-26T00:35:45.986Z,2.50
2022-10-26T00:38:13.564Z,2.50
2022-10-26T00:40:40.673Z,2.80
2022-10-26T00:43:21.437Z,3.50
2022-10-26T00:45:52.089Z,3.03
2022-10-26T00:48:26.694Z,2.38
2022-10-26T00:50:54.872Z,3.30
2022-10-26T00:53:22.151Z,2.83
2022-10-26T00:55:51.606Z,2.35
2022-10-26T00:58:20.317Z,3.17
2022-10-26T01:00:48.179Z,3.20
2022-10-26T01:03:17.593Z,2.45
2022-10-26T01:05:46.780Z,2.65
2022-10-26T01:08:16.011Z,2.58
2022-10-26T01:10:43.869Z,3.03
2022-10-26T01:13:11.585Z,2.80
2022-10-26T01:16:09.777Z,2.35
2022-10-26T01:19:13.280Z,2.42
2022-10-26T01:24:34.521Z,2.58
2022-10-26T01:27:34.846Z,2.50
2022-10-26T01:30:34.287Z,3.05
2022-10-26T01:33:37.259Z,2.40
2022-10-26T01:36:29.984Z,2.50
2022-10-26T01:39:04.428Z,2.58
2022-10-26T01:41:48.898Z,2.72
2022-10-26T01:44:23.485Z,2.95
2022-10-26T01:46:53.562Z,3.50
2022-10-26T01:49:32.750Z,3.03
2022-10-26T01:51:59.615Z,2.80
2022-10-26T01:54:26.446Z,3.00
2022-10-26T01:57:02.678Z,3.13
2022-10-26T02:00:00.519Z,3.38
2022-10-26T02:02:39.324Z,3.08
2022-10-26T02:05:17.902Z,3.38
2022-10-26T02:08:15.476Z,3.90
2022-10-26T02:11:12.319Z,3.10
2022-10-26T02:14:08.400Z,3.70
2022-10-26T02:16:58.199Z,2.90
2022-10-26T02:19:48.115Z,3.20
2022-10-26T02:22:25.589Z,4.25
2022-10-26T02:24:53.900Z,4.18
2022-10-26T02:27:26.339Z,3.70
2022-10-26T02:29:56.468Z,2.63
2022-10-26T02:32:28.868Z,3.97
2022-10-26T02:34:57.898Z,4.38
2022-10-26T02:37:26.410Z,3.92
2022-10-26T02:39:55.012Z,3.88
2022-10-26T02:42:24.142Z,3.70
2022-10-26T02:44:57.964Z,3.90
2022-10-26T02:47:26.584Z,2.97
2022-10-26T02:49:54.915Z,3.00
2022-10-26T02:52:36.946Z,2.58
2022-10-26T02:55:12.876Z,4.50
2022-10-26T02:57:45.311Z,4.53
2022-10-26T03:00:17.803Z,4.60
2022-10-26T03:02:55.276Z,4.50
2022-10-26T03:05:26.968Z,2.80
2022-10-26T03:07:55.311Z,2.70
2022-10-26T03:10:22.824Z,4.70
2022-10-26T03:12:49.997Z,1.85
2022-10-26T03:15:17.140Z,2.33
2022-10-26T03:17:44.224Z,1.80
2022-10-26T03:20:11.576Z,3.25
2022-10-26T03:22:38.420Z,3.90
2022-10-26T03:25:06.137Z,3.25
2022-10-26T03:27:32.974Z,1.27
2022-10-26T03:29:59.830Z,2.28
2022-10-26T03:32:26.654Z,1.55
2022-10-26T03:34:53.577Z,1.88
2022-10-26T03:37:20.345Z,2.03
2022-10-26T03:39:47.137Z,1.42
2022-10-26T03:42:13.993Z,0.90
2022-10-26T03:44:40.888Z,1.00
2022-10-26T03:47:07.868Z,1.20
2022-10-26T03:49:35.923Z,1.80
2022-10-26T03:52:03.002Z,1.40
2022-10-26T03:54:29.793Z,1.33
2022-10-26T03:56:56.547Z,1.45
2022-10-26T03:59:23.390Z,1.30
2022-10-26T04:01:52.792Z,1.50
2022-10-26T04:04:22.452Z,1.52
2022-10-26T04:06:49.426Z,1.42
2022-10-26T04:09:16.214Z,1.40
2022-10-26T04:11:43.033Z,1.67
2022-10-26T04:14:09.848Z,1.38
2022-10-26T04:16:36.737Z,1.20
2022-10-26T04:19:03.589Z,1.27
2022-10-26T04:21:32.834Z,1.25
2022-10-26T04:23:59.660Z,1.17
2022-10-26T04:26:26.572Z,1.83
2022-10-26T04:28:53.472Z,1.15
2022-10-26T04:31:20.521Z,1.10
2022-10-26T04:33:47.335Z,1.30
2022-10-26T04:36:14.103Z,1.30
2022-10-26T04:38:40.893Z,1.13
2022-10-26T04:41:07.689Z,1.20
2022-10-26T04:43:34.459Z,1.38
2022-10-26T04:46:01.298Z,1.60
2022-10-26T04:48:28.193Z,1.20
2022-10-26T04:50:58.933Z,1.30
2022-10-26T04:53:26.397Z,1.25
2022-10-26T04:56:00.963Z,1.40
2022-10-26T04:58:28.762Z,1.60
2022-10-26T05:00:56.075Z,2.25
2022-10-26T05:03:23.010Z,1.40
2022-10-26T05:05:50.135Z,1.50
2022-10-26T05:08:17.015Z,1.17
2022-10-26T05:10:48.541Z,1.05
2022-10-26T05:13:15.646Z,1.00
2022-10-26T05:15:42.469Z,1.17
2022-10-26T05:18:09.671Z,1.10
2022-10-26T05:20:37.150Z,1.10
2022-10-26T05:23:07.210Z,0.95
2022-10-26T05:25:38.380Z,1.20
2022-10-26T05:28:09.535Z,1.02
2022-10-26T05:30:36.513Z,1.30
2022-10-26T05:33:03.484Z,1.13
2022-10-26T05:35:31.816Z,1.30
2022-10-26T05:37:59.159Z,1.15
2022-10-26T05:40:26.353Z,1.10
2022-10-26T05:42:53.519Z,1.60
2022-10-26T05:45:20.421Z,1.42
2022-10-26T05:47:47.587Z,1.15
2022-10-26T05:50:14.839Z,1.98
2022-10-26T05:52:46.768Z,2.40
2022-10-26T05:55:17.651Z,1.43
2022-10-26T05:57:45.177Z,1.83
2022-10-26T06:00:18.641Z,1.52
2022-10-26T06:03:16.001Z,1.48
2022-10-26T06:05:55.724Z,1.90
2022-10-26T06:08:25.820Z,1.42
2022-10-26T06:10:54.078Z,1.58
2022-10-26T06:13:21.919Z,2.30
2022-10-26T06:16:20.860Z,1.58
2022-10-26T06:19:24.771Z,1.77
2022-10-26T06:22:49.535Z,1.92
2022-10-26T06:25:33.143Z,1.42
2022-10-26T06:28:27.795Z,1.95
2022-10-26T06:30:55.025Z,1.67
2022-10-26T06:33:29.605Z,2.10
2022-10-26T06:36:22.272Z,2.00
2022-10-26T06:38:55.371Z,1.38
2022-10-26T06:41:23.667Z,2.10
2022-10-26T06:43:50.925Z,2.03
2022-10-26T06:46:39.702Z,2.05
2022-10-26T06:49:25.816Z,1.95
2022-10-26T06:52:07.285Z,2.25
2022-10-26T06:54:53.142Z,1.83
2022-10-26T06:57:23.074Z,1.95
2022-10-26T07:00:00.670Z,2.33
2022-10-26T07:02:28.038Z,2.35
2022-10-26T07:04:58.122Z,2.00
2022-10-26T07:07:32.334Z,2.50
2022-10-26T07:09:59.571Z,2.20
2022-10-26T07:12:29.610Z,2.08
2022-10-26T07:15:00.819Z,2.10
2022-10-26T07:17:28.871Z,1.85
2022-10-26T07:19:55.859Z,2.03
2022-10-26T07:22:23.332Z,1.95
2022-10-26T07:24:51.419Z,2.03
2022-10-26T07:27:21.606Z,2.45
2022-10-26T07:29:48.420Z,2.28
2022-10-26T07:32:15.268Z,2.15
2022-10-26T07:34:42.042Z,2.40
2022-10-26T07:37:08.961Z,1.63
2022-10-26T07:39:35.784Z,1.95
2022-10-26T07:42:02.663Z,2.20
2022-10-26T07:44:29.542Z,2.22
2022-10-26T07:46:57.017Z,3.05
2022-10-26T07:49:26.223Z,2.40
2022-10-26T07:51:55.001Z,2.20
2022-10-26T07:54:21.922Z,2.25
2022-10-26T07:56:51.613Z,2.08
2022-10-26T07:59:18.587Z,1.50
2022-10-26T08:01:45.834Z,2.20
2022-10-26T08:04:12.735Z,2.13
2022-10-26T08:06:40.215Z,1.73
2022-10-26T08:09:07.164Z,1.88
2022-10-26T08:11:36.948Z,4.60
2022-10-26T08:14:04.741Z,2.10
2022-10-26T08:16:31.724Z,2.72
2022-10-26T08:18:58.530Z,2.50
2022-10-26T08:21:36.344Z,2.10
2022-10-26T08:24:07.015Z,2.22
2022-10-26T08:26:34.018Z,2.42
2022-10-26T08:29:01.445Z,2.42
2022-10-26T08:31:28.481Z,2.45
2022-10-26T08:33:55.312Z,2.65
2022-10-26T08:36:27.858Z,4.15
2022-10-26T08:38:54.804Z,2.22
2022-10-26T08:41:52.798Z,2.05
2022-10-26T08:44:25.786Z,2.10
2022-10-26T08:47:00.057Z,1.58
2022-10-26T08:49:59.586Z,2.15
2022-10-26T08:52:47.899Z,1.67
2022-10-26T08:55:20.861Z,2.28
2022-10-26T08:57:50.065Z,2.08
2022-10-26T09:00:26.221Z,1.80
2022-10-26T09:02:54.173Z,1.90
2022-10-26T09:05:39.302Z,2.00
2022-10-26T09:08:32.925Z,2.13
2022-10-26T09:11:27.131Z,1.60
2022-10-26T09:14:12.281Z,1.92
2022-10-26T09:17:04.442Z,1.73
2022-10-26T09:19:37.225Z,2.20
2022-10-26T09:22:22.572Z,1.60
2022-10-26T09:24:57.072Z,1.67
2022-10-26T09:27:47.970Z,1.75
2022-10-26T09:30:19.386Z,1.58
2022-10-26T09:33:04.768Z,1.65
2022-10-26T09:35:57.022Z,1.95
2022-10-26T09:38:38.846Z,1.50
2022-10-26T09:41:37.248Z,2.03
2022-10-26T09:44:27.180Z,1.50
2022-10-26T09:47:30.803Z,1.83
2022-10-26T09:50:16.269Z,2.30
2022-10-26T09:52:43.215Z,2.05
2022-10-26T09:55:13.728Z,2.30
2022-10-26T09:57:46.506Z,1.85
2022-10-26T10:00:20.191Z,1.88
2022-10-26T10:02:55.199Z,1.60
2022-10-26T10:05:49.707Z,1.50
2022-10-26T10:08:31.394Z,1.60
2022-10-26T10:11:14.286Z,1.58
2022-10-26T10:13:43.996Z,2.03
2022-10-26T10:16:19.371Z,1.67
2022-10-26T10:18:55.680Z,1.63
2022-10-26T10:21:38.867Z,1.88
2022-10-26T10:24:33.244Z,2.13
2022-10-26T10:27:15.655Z,1.45
2022-10-26T10:29:59.667Z,2.13
2022-10-26T10:32:35.460Z,1.92
2022-10-26T10:35:29.814Z,2.08
2022-10-26T10:37:57.816Z,1.42
2022-10-26T10:40:31.305Z,1.83
2022-10-26T10:43:14.561Z,1.23
2022-10-26T10:45:51.983Z,1.58
2022-10-26T10:48:28.927Z,1.40
2022-10-26T10:51:12.337Z,1.70
2022-10-26T10:53:46.838Z,2.28
2022-10-26T10:56:49.068Z,1.42
2022-10-26T10:59:30.806Z,2.03
2022-10-26T11:02:25.035Z,1.83
2022-10-26T11:05:27.382Z,1.58
2022-10-26T11:08:08.731Z,1.50
2022-10-26T11:11:09.766Z,1.70
2022-10-26T11:14:12.477Z,1.75
2022-10-26T11:17:26.436Z,1.67
2022-10-26T11:20:05.215Z,1.92
2022-10-26T11:22:59.954Z,1.80
2022-10-26T11:25:45.357Z,1.77
2022-10-26T11:28:50.867Z,2.00
2022-10-26T11:31:31.742Z,1.73
2022-10-26T11:34:22.950Z,1.80
2022-10-26T11:36:58.024Z,1.73
2022-10-26T11:39:43.749Z,2.20
2022-10-26T11:42:35.130Z,2.40
2022-10-26T11:45:19.606Z,1.80
2022-10-26T11:47:57.233Z,2.35
2022-10-26T11:50:34.524Z,1.67
2022-10-26T11:53:19.549Z,2.30
2022-10-26T11:55:54.518Z,1.35
2022-10-26T11:58:27.396Z,1.75
2022-10-26T12:01:10.806Z,1.35
2022-10-26T12:03:45.618Z,1.30
2022-10-26T12:06:15.379Z,1.50
2022-10-26T12:08:49.089Z,2.15
2022-10-26T12:11:31.614Z,1.20
2022-10-26T12:14:08.805Z,1.55
2022-10-26T12:17:02.832Z,2.25
2022-10-26T12:19:56.110Z,1.92
2022-10-26T12:22:33.941Z,1.58
2022-10-26T12:25:15.995Z,2.35
2022-10-26T12:27:42.805Z,1.30
2022-10-26T12:30:18.529Z,1.40
2022-10-26T12:32:45.349Z,2.05
2022-10-26T12:35:32.215Z,1.55
2022-10-26T12:38:00.966Z,2.13
2022-10-26T12:40:37.977Z,1.40
2022-10-26T12:43:14.191Z,1.20
2022-10-26T12:45:42.928Z,1.20
2022-10-26T12:48:49.040Z,1.25
2022-10-26T12:51:22.089Z,1.33
2022-10-26T12:54:32.758Z,1.10
2022-10-26T12:57:34.518Z,1.23
2022-10-26T13:00:06.052Z,1.35
2022-10-26T13:03:12.681Z,1.10
2022-10-26T13:05:58.692Z,1.20
2022-10-26T13:08:25.952Z,0.93
2022-10-26T13:11:17.485Z,1.50
2022-10-26T13:13:45.719Z,1.20
2022-10-26T13:16:16.672Z,1.02
2022-10-26T13:18:48.471Z,1.10
2022-10-26T13:21:18.051Z,1.10
2022-10-26T13:24:06.998Z,1.40
2022-10-26T13:27:05.575Z,1.35
2022-10-26T13:29:34.120Z,1.10
2022-10-26T13:32:01.422Z,0.90
2022-10-26T13:34:33.367Z,1.48
2022-10-26T13:37:21.745Z,0.93
2022-10-26T13:39:50.387Z,0.90
2022-10-26T13:42:41.189Z,1.00
2022-10-26T13:45:14.528Z,1.02
2022-10-26T13:48:01.958Z,1.00
2022-10-26T13:50:36.591Z,0.93
2022-10-26T13:53:31.512Z,1.23
2022-10-26T13:56:22.090Z,1.30
2022-10-26T13:59:15.540Z,1.10
2022-10-26T14:01:42.966Z,0.85
2022-10-26T14:04:27.742Z,0.80
2022-10-26T14:06:55.136Z,1.00
2022-10-26T14:09:23.045Z,1.33
2022-10-26T14:11:58.229Z,1.23
2022-10-26T14:14:32.389Z,0.80
2022-10-26T14:16:59.902Z,1.30
2022-10-26T14:19:33.302Z,0.95
2022-10-26T14:22:01.229Z,0.98
2022-10-26T14:24:47.289Z,0.80
2022-10-26T14:27:21.601Z,0.95
2022-10-26T14:30:09.842Z,1.00
2022-10-26T14:32:37.752Z,0.80
2022-10-26T14:35:05.097Z,0.90
2022-10-26T14:37:46.006Z,1.20
2022-10-26T14:40:27.326Z,1.65
2022-10-26T14:43:00.046Z,1.27
2022-10-26T14:45:50.242Z,1.00
2022-10-26T14:48:31.745Z,1.30
2022-10-26T14:51:11.895Z,0.90
2022-10-26T14:53:52.594Z,0.90
2022-10-26T14:56:30.889Z,1.08
2022-10-26T14:58:59.425Z,1.00
2022-10-26T15:01:33.225Z,1.20
2022-10-26T15:04:07.225Z,0.90
2022-10-26T15:06:43.133Z,1.02
2022-10-26T15:09:33.315Z,0.95
2022-10-26T15:12:02.827Z,1.30
2022-10-26T15:14:29.893Z,0.95
2022-10-26T15:16:59.198Z,1.10
2022-10-26T15:19:27.529Z,0.90
2022-10-26T15:21:54.946Z,1.00
2022-10-26T15:24:36.101Z,0.70
2022-10-26T15:27:13.932Z,0.90
2022-10-26T15:29:47.141Z,1.00
2022-10-26T15:32:32.727Z,1.00
2022-10-26T15:35:19.384Z,1.00
2022-10-26T15:37:47.751Z,0.93
2022-10-26T15:40:15.455Z,1.08
2022-10-26T15:42:45.415Z,0.90
2022-10-26T15:45:35.642Z,1.23
2022-10-26T15:48:20.290Z,0.88
2022-10-26T15:50:47.171Z,1.05
2022-10-26T15:53:27.376Z,1.10
2022-10-26T15:55:57.033Z,1.55
2022-10-26T15:58:24.024Z,1.20
2022-10-26T16:00:51.051Z,1.45
2022-10-26T16:03:23.952Z,1.17
2022-10-26T16:05:58.141Z,1.27
2022-10-26T16:08:28.172Z,0.90
2022-10-26T16:10:55.463Z,1.20
2022-10-26T16:13:22.324Z,1.30
2022-10-26T16:15:49.506Z,1.30
2022-10-26T16:18:16.589Z,1.40
2022-10-26T16:20:45.887Z,2.90
2022-10-26T16:23:12.975Z,2.47
2022-10-26T16:25:46.115Z,2.63
2022-10-26T16:28:16.119Z,2.25
2022-10-26T16:30:43.748Z,3.55
2022-10-26T16:33:10.634Z,2.60
2022-10-26T16:35:37.580Z,2.20
2022-10-26T16:38:04.463Z,2.05
2022-10-26T16:40:31.315Z,2.38
2022-10-26T16:42:58.272Z,1.98
2022-10-26T16:45:25.066Z,4.00
2022-10-26T16:47:52.340Z,4.50
2022-10-26T16:50:22.038Z,6.30
2022-10-26T16:52:49.123Z,5.30
2022-10-26T16:55:17.010Z,6.75
2022-10-26T16:57:43.806Z,7.50
2022-10-26T17:00:11.141Z,11.63
2022-10-26T17:02:38.079Z,9.20
2022-10-26T17:05:07.551Z,8.48
2022-10-26T17:07:35.308Z,9.40
2022-10-26T17:10:02.230Z,10.60
2022-10-26T17:12:29.687Z,10.57
2022-10-26T17:14:58.613Z,13.57
2022-10-26T17:17:25.434Z,11.48
2022-10-26T17:19:52.430Z,10.15
2022-10-26T17:22:19.242Z,13.90
2022-10-26T17:24:46.216Z,13.57
2022-10-26T17:27:13.016Z,14.30
2022-10-26T17:29:39.895Z,11.07
2022-10-26T17:32:06.702Z,7.97
2022-10-26T17:34:33.628Z,7.20
2022-10-26T17:37:00.476Z,7.82
2022-10-26T17:39:27.273Z,7.88
2022-10-26T17:41:54.085Z,6.47
2022-10-26T17:44:21.220Z,6.82
2022-10-26T17:46:48.078Z,6.95
2022-10-26T17:49:14.903Z,7.00
2022-10-26T17:51:41.746Z,8.95
2022-10-26T17:54:08.692Z,7.65
2022-10-26T17:56:35.715Z,7.55
2022-10-26T17:59:06.508Z,7.80
2022-10-26T18:01:33.518Z,8.52
2022-10-26T18:04:00.981Z,7.95
2022-10-26T18:06:27.848Z,8.88
2022-10-26T18:08:57.284Z,8.52
2022-10-26T18:11:27.157Z,6.82
2022-10-26T18:13:58.363Z,8.35
2022-10-26T18:16:27.193Z,9.63
2022-10-26T18:19:04.339Z,7.75
2022-10-26T18:21:34.564Z,6.07
2022-10-26T18:24:01.376Z,6.75
2022-10-26T18:26:30.137Z,5.78
2022-10-26T18:28:59.176Z,6.85
2022-10-26T18:31:28.418Z,5.22
2022-10-26T18:34:00.783Z,5.00
2022-10-26T18:36:28.957Z,5.50
2022-10-26T18:38:56.698Z,6.55
2022-10-26T18:41:25.399Z,7.80
2022-10-26T18:43:55.872Z,9.88
2022-10-26T18:46:29.101Z,8.25
2022-10-26T18:48:58.043Z,11.20
2022-10-26T18:51:31.154Z,13.15
2022-10-26T18:53:58.961Z,12.93
2022-10-26T18:56:27.175Z,13.45
2022-10-26T18:58:58.872Z,14.95
2022-10-26T19:01:35.334Z,16.63
2022-10-26T19:04:06.119Z,13.88
2022-10-26T19:06:47.328Z,12.68
2022-10-26T19:09:16.551Z,17.65
2022-10-26T19:11:43.877Z,18.58
2022-10-26T19:14:12.590Z,15.13
2022-10-26T19:16:45.767Z,14.20
2022-10-26T19:19:15.211Z,11.60
2022-10-26T19:21:42.061Z,9.82
2022-10-26T19:24:16.818Z,9.63
2022-10-26T19:26:44.535Z,8.73
2022-10-26T19:29:16.803Z,8.60
2022-10-26T19:31:50.668Z,8.57
2022-10-26T19:34:18.614Z,7.75
2022-10-26T19:36:46.983Z,8.18
2022-10-26T19:39:18.234Z,9.18
2022-10-26T19:41:46.312Z,11.32
2022-10-26T19:44:15.232Z,8.15
2022-10-26T19:46:43.565Z,7.63
2022-10-26T19:49:12.408Z,7.45
2022-10-26T19:51:39.625Z,7.35
2022-10-26T19:54:07.188Z,7.25
2022-10-26T19:56:36.907Z,9.82
2022-10-26T19:59:04.798Z,7.28
2022-10-26T20:01:32.317Z,7.05
2022-10-26T20:04:02.199Z,8.07
2022-10-26T20:06:29.498Z,11.05
2022-10-26T20:08:56.322Z,11.18
2022-10-26T20:11:23.170Z,13.48
2022-10-26T20:13:49.950Z,12.55
2022-10-26T20:16:17.685Z,12.15
2022-10-26T20:18:48.147Z,13.18
2022-10-26T20:21:17.625Z,12.65
2022-10-26T20:23:45.033Z,11.50
2022-10-26T20:26:18.780Z,12.52
2022-10-26T20:28:52.666Z,16.75
2022-10-26T20:31:19.859Z,14.85
2022-10-26T20:33:51.727Z,23.98
2022-10-26T20:36:18.825Z,24.95
2022-10-26T20:38:45.986Z,20.83
2022-10-26T20:41:13.281Z,17.98
2022-10-26T20:43:41.524Z,22.58
2022-10-26T20:46:38.332Z,24.23
2022-10-26T20:49:05.527Z,21.25
2022-10-26T20:52:02.637Z,17.88
2022-10-26T20:54:42.824Z,21.25
2022-10-26T20:57:17.558Z,23.17
2022-10-26T21:00:00.096Z,19.45
2022-10-26T21:02:27.804Z,20.17
2022-10-26T21:04:54.641Z,20.30
2022-10-26T21:07:21.653Z,20.20
2022-10-26T21:09:49.310Z,22.65
2022-10-26T21:12:16.180Z,21.55
2022-10-26T21:14:42.972Z,31.02
2022-10-26T21:17:10.771Z,34.95
2022-10-26T21:19:37.956Z,34.60
2022-10-26T21:22:04.874Z,26.10
2022-10-26T21:24:32.128Z,23.13
2022-10-26T21:26:59.436Z,21.67
2022-10-26T21:29:26.416Z,15.57
2022-10-26T21:31:53.194Z,11.77
2022-10-26T21:34:19.946Z,11.55
2022-10-26T21:36:46.716Z,9.80
2022-10-26T21:39:13.614Z,9.95
2022-10-26T21:41:40.740Z,8.80
2022-10-26T21:44:22.389Z,8.15
2022-10-26T21:46:56.772Z,8.38
2022-10-26T21:49:23.609Z,8.07
2022-10-26T21:51:50.496Z,12.88
2022-10-26T21:54:19.372Z,15.25
2022-10-26T21:56:46.249Z,17.45
2022-10-26T21:59:13.061Z,20.42
2022-10-26T22:01:39.977Z,26.25
2022-10-26T22:04:06.770Z,16.05
2022-10-26T22:06:33.673Z,12.35
2022-10-26T22:09:00.450Z,10.23
2022-10-26T22:11:27.262Z,12.27
2022-10-26T22:13:54.485Z,10.52
2022-10-26T22:16:28.344Z,9.90
2022-10-26T22:18:57.984Z,7.20
2022-10-26T22:21:27.041Z,8.27
2022-10-26T22:23:54.290Z,6.45
2022-10-26T22:26:24.134Z,8.70
2022-10-26T22:28:54.363Z,8.15
2022-10-26T22:31:34.056Z,6.07
2022-10-26T22:34:07.511Z,7.88
2022-10-26T22:36:35.517Z,18.42
2022-10-26T22:39:02.794Z,8.88
2022-10-26T22:41:29.738Z,8.43
2022-10-26T22:43:56.920Z,11.05
2022-10-26T22:46:26.840Z,12.48
2022-10-26T22:48:59.687Z,10.07
2022-10-26T22:51:30.916Z,8.75
2022-10-26T22:53:59.807Z,12.02
2022-10-26T22:56:28.332Z,9.70
2022-10-26T22:58:55.224Z,8.68
2022-10-26T23:01:27.759Z,9.68
2022-10-26T23:03:58.237Z,8.27
2022-10-26T23:06:28.039Z,9.15
2022-10-26T23:08:54.925Z,9.13
2022-10-26T23:11:24.676Z,8.48
2022-10-26T23:13:59.240Z,7.85
2022-10-26T23:16:27.032Z,7.97
2022-10-26T23:18:54.272Z,8.25
2022-10-26T23:21:24.048Z,16.98
2022-10-26T23:23:51.003Z,9.93
2022-10-26T23:26:21.511Z,10.25
2022-10-26T23:28:49.749Z,12.30
2022-10-26T23:31:25.749Z,9.05
2022-10-26T23:33:55.422Z,8.38
2022-10-26T23:36:23.006Z,9.35
2022-10-26T23:38:50.746Z,10.13
2022-10-26T23:41:17.891Z,7.88
2022-10-26T23:43:44.841Z,10.27
2022-10-26T23:46:11.758Z,10.05
2022-10-26T23:48:38.685Z,5.07
2022-10-26T23:51:06.218Z,4.70
2022-10-26T23:53:33.186Z,5.53
2022-10-26T23:56:00.014Z,9.48
2022-10-26T23:58:26.817Z,7.05
